Air Navigation Services of Czech Republic  
Last data update:  20.05.2022 20:30:36 UTC česká verze
   METEO Page displayed:  20.05.2022 20:31:21 UTC  
vysvětlivky
METAR EDDB 202020Z 07004KT 040V100 CAVOK 16/15 Q1010 NOSIG=
METAR EDDC 202020Z 28024G39KT 250V320 9999 TSRA FEW048 BKN060CB 20/18 Q1012=
METAR EDDE 202020Z AUTO 28006KT 250V310 9999 -SHRA FEW017 FEW///TCU 18/17 Q1014 RESHRA=
METAR EDDF 202020Z 26013KT 9999 FEW020 20/15 Q1017 NOSIG=
METAR EDDM 202020Z 27006KT 9999 FEW070TCU 23/14 Q1017 TEMPO 27020G40KT 4000 TSRA BKN045CB=
METAR EDDN 202020Z AUTO 18004KT 9999 -SHRA FEW///CB 20/18 Q1016=
METAR EDDP 202020Z 23009KT 9999 FEW025 18/17 Q1011 RETS NOSIG=
METAR EDQM 202020Z AUTO 22010KT 9999 // NCD 17/15 Q1015=
METAR EPBY 202000Z 03004KT 360V060 CAVOK 19/10 Q1011=
METAR EPGD 202000Z 32006KT CAVOK 14/10 Q1012=
METAR EPKK 202000Z VRB01KT CAVOK 20/13 Q1014=
METAR EPKT 202000Z 21005KT CAVOK 21/14 Q1014=
METAR EPLL 202000Z VRB01KT CAVOK 18/09 Q1013=
METAR EPPO 202000Z 13001KT CAVOK 20/12 Q1010=
METAR EPRZ 202000Z 21006KT 160V310 CAVOK 19/10 Q1015=
METAR EPWA 202000Z 22003KT CAVOK 17/10 Q1012 NOSIG=
METAR EPWR 202000Z 16007KT CAVOK 22/16 Q1012=
METAR LHBP 202000Z 11003KT CAVOK 19/13 Q1017 NOSIG=
METAR LHSM 201945Z AUTO 19003KT CAVOK 21/16 Q1018=
METAR LKBC NIL
METAR LKCS 202030Z AUTO 35008KT 320V040 9999 BKN096/// BKN150/// OVC250/// 22/12 Q1016=
METAR LKCV 202030Z 25015KT 7000 TSRA SCT030CB BKN100 19/16 Q1015 NOSIG RMK WHT WHT=
METAR LKKB 202030Z 19008KT 170V230 9999 -TSRA SCT050CB SCT100 19/16 Q1013 RMK BLU=
METAR LKKU NIL
METAR LKKV 202000Z 23003KT 150V290 CAVOK 16/14 Q1015=
METAR LKLN 202030Z AUTO 21006KT 9999 BKN120 BKN140 17/15 Q1015=
METAR LKMT 202030Z 25004KT 200V290 CAVOK 20/14 Q1015 NOSIG=
METAR LKNA 202000Z 16009KT CAVOK 23/14 Q1016 NOSIG RMK BLU BLU=
METAR LKPD 202030Z 25024KT 9999 -TSRA SCT049CB 19/16 Q1015 RMK BLACK=
METAR LKPJ 202030Z AUTO 18006KT 9999 SCT130/// 20/15 Q1015=
METAR LKPR 202030Z 21009KT 9999 -RA FEW046 18/16 Q1013 NOSIG RMK REG QNH 1010=
METAR LKTB 202030Z 16004KT CAVOK 22/14 Q1015 NOSIG=
METAR LKVO NIL
METAR LOWI 202020Z 30013G25KT 9999 -RA VCTS FEW050CB BKN100 21/13 Q1021 RETSRA BECMG NSW=
METAR LOWL 202020Z AUTO 05006KT CAVOK 23/16 Q1014 NOSIG=
METAR LOWS 202020Z 24015KT 220V280 8000 TSRA FEW016 SCT040CB BKN100 24/14 Q1018 TEMPO 25007KT -RA=
METAR LOWW 202020Z 17009KT CAVOK 23/14 Q1015 NOSIG=
METAR LZIB 202000Z 19004KT CAVOK 22/14 Q1016 NOSIG=
METAR LZKZ 202000Z 20003KT CAVOK 17/10 Q1017 NOSIG=
METAR LZMC NIL
METAR LZPP 202000Z 17003KT 130V300 CAVOK 23/12 Q1016=
METAR LZSL NIL
METAR LZTT 202000Z 23008KT CAVOK 19/10 Q1018=
METAR LZZI 202000Z VRB01KT CAVOK 17/14 Q1017=